createdAt,value
2023-04-29T00:01:18.030Z,8.65
2023-04-29T00:03:49.065Z,7.55
2023-04-29T00:06:21.112Z,7.65
2023-04-29T00:08:53.939Z,7.20
2023-04-29T00:11:24.474Z,6.95
2023-04-29T00:13:53.807Z,7.62
2023-04-29T00:16:22.755Z,6.05
2023-04-29T00:18:51.967Z,6.97
2023-04-29T00:21:22.330Z,6.12
2023-04-29T00:27:03.168Z,7.70
2023-04-29T00:29:33.097Z,7.67
2023-04-29T00:32:03.956Z,6.83
2023-04-29T00:34:33.948Z,6.20
2023-04-29T00:37:02.988Z,5.90
2023-04-29T00:39:32.752Z,7.30
2023-04-29T00:42:03.022Z,7.08
2023-04-29T00:44:31.158Z,6.60
2023-04-29T00:47:00.218Z,6.47
2023-04-29T00:49:28.721Z,6.37
2023-04-29T00:51:59.319Z,6.22
2023-04-29T00:54:27.482Z,6.37
2023-04-29T00:56:56.499Z,5.42
2023-04-29T00:59:28.099Z,5.72
2023-04-29T01:01:56.296Z,5.80
2023-04-29T01:04:24.188Z,6.22
2023-04-29T01:07:06.733Z,5.42
2023-04-29T01:10:03.919Z,5.90
2023-04-29T01:12:46.366Z,5.62
2023-04-29T01:15:25.506Z,5.50
2023-04-29T01:18:27.570Z,5.83
2023-04-29T01:20:58.653Z,5.62
2023-04-29T01:23:28.585Z,4.67
2023-04-29T01:25:58.252Z,4.80
2023-04-29T01:28:48.954Z,4.87
2023-04-29T01:31:47.953Z,4.92
2023-04-29T01:34:51.513Z,4.42
2023-04-29T01:37:45.447Z,4.55
2023-04-29T01:41:03.846Z,5.10
2023-04-29T01:43:34.362Z,4.80
2023-04-29T01:46:14.535Z,5.12
2023-04-29T01:48:45.300Z,5.28
2023-04-29T01:51:14.954Z,5.35
2023-04-29T01:53:59.130Z,5.22
2023-04-29T01:56:27.436Z,4.70
2023-04-29T01:59:03.477Z,5.28
2023-04-29T02:01:36.504Z,5.25
2023-04-29T02:04:06.161Z,4.92
2023-04-29T02:06:34.911Z,5.58
2023-04-29T02:09:05.920Z,5.28
2023-04-29T02:11:35.819Z,5.53
2023-04-29T02:14:04.117Z,5.12
2023-04-29T02:16:35.170Z,6.25
2023-04-29T02:19:04.929Z,5.58
2023-04-29T02:21:35.575Z,5.47
2023-04-29T02:24:03.775Z,5.70
2023-04-29T02:26:34.050Z,5.15
2023-04-29T02:29:03.404Z,5.85
2023-04-29T02:31:31.254Z,5.30
2023-04-29T02:34:00.109Z,5.67
2023-04-29T02:36:28.395Z,5.35
2023-04-29T02:38:59.688Z,6.50
2023-04-29T02:41:28.966Z,6.17
2023-04-29T02:43:59.934Z,5.67
2023-04-29T02:46:28.871Z,5.42
2023-04-29T02:48:59.004Z,5.33
2023-04-29T02:51:29.118Z,4.40
2023-04-29T02:53:57.169Z,4.85
2023-04-29T02:56:27.803Z,4.67
2023-04-29T02:58:58.912Z,4.80
2023-04-29T03:01:33.434Z,5.00
2023-04-29T03:04:03.607Z,5.45
2023-04-29T03:06:33.111Z,4.53
2023-04-29T03:09:07.037Z,5.25
2023-04-29T03:11:36.344Z,5.20
2023-04-29T03:20:46.428Z,5.83
2023-04-29T03:23:17.215Z,5.60
2023-04-29T03:25:46.733Z,6.03
2023-04-29T03:28:14.815Z,6.47
2023-04-29T03:30:44.937Z,7.60
2023-04-29T03:33:14.096Z,7.17
2023-04-29T03:38:59.464Z,8.23
2023-04-29T03:41:38.054Z,7.50
2023-04-29T03:44:08.186Z,6.95
2023-04-29T03:46:55.474Z,7.20
2023-04-29T03:49:26.009Z,6.72
2023-04-29T03:51:54.409Z,5.65
2023-04-29T03:54:23.064Z,5.95
2023-04-29T03:56:51.200Z,4.35
2023-04-29T04:02:01.893Z,4.75
2023-04-29T04:04:29.995Z,5.30
2023-04-29T04:06:58.221Z,5.40
2023-04-29T04:09:27.890Z,5.35
2023-04-29T04:11:55.647Z,4.97
2023-04-29T04:14:25.795Z,4.62
2023-04-29T04:16:55.883Z,5.08
2023-04-29T04:19:26.816Z,5.17
2023-04-29T04:21:55.292Z,6.10
2023-04-29T04:24:23.406Z,6.33
2023-04-29T04:26:51.597Z,6.15
2023-04-29T04:29:36.733Z,4.42
2023-04-29T04:32:12.563Z,3.70
2023-04-29T04:34:40.544Z,3.08
2023-04-29T04:37:10.261Z,3.55
2023-04-29T04:39:40.731Z,3.87
2023-04-29T04:42:10.580Z,3.40
2023-04-29T04:44:38.676Z,3.62
2023-04-29T04:47:08.637Z,3.83
2023-04-29T04:49:49.280Z,3.22
2023-04-29T04:52:22.524Z,3.60
2023-04-29T04:54:52.351Z,4.15
2023-04-29T04:57:22.160Z,3.70
2023-04-29T04:59:50.519Z,4.42
2023-04-29T05:02:19.274Z,4.03
2023-04-29T05:04:47.375Z,4.10
2023-04-29T05:07:15.973Z,4.28
2023-04-29T05:12:19.421Z,3.92
2023-04-29T05:14:53.936Z,3.90
2023-04-29T05:17:21.936Z,4.10
2023-04-29T05:19:50.063Z,3.95
2023-04-29T05:22:18.262Z,4.58
2023-04-29T05:24:48.638Z,4.83
2023-04-29T05:27:16.882Z,4.53
2023-04-29T05:29:45.413Z,5.05
2023-04-29T05:32:13.507Z,4.95
2023-04-29T05:34:42.117Z,4.92
2023-04-29T05:37:09.925Z,4.45
2023-04-29T05:39:42.085Z,3.95
2023-04-29T05:42:11.753Z,4.10
2023-04-29T05:44:41.699Z,4.55
2023-04-29T05:47:09.462Z,4.87
2023-04-29T05:49:37.631Z,5.35
2023-04-29T05:52:06.127Z,6.05
2023-04-29T05:54:35.365Z,5.33
2023-04-29T05:57:04.712Z,19.42
2023-04-29T05:59:33.726Z,6.03
2023-04-29T06:02:03.345Z,4.70
2023-04-29T06:04:31.481Z,4.80
2023-04-29T06:07:17.781Z,4.97
2023-04-29T06:09:48.240Z,6.25
2023-04-29T06:12:16.334Z,7.37
2023-04-29T06:14:49.913Z,6.87
2023-04-29T06:17:22.174Z,6.40
2023-04-29T06:19:50.518Z,5.40
2023-04-29T06:22:18.835Z,5.60
2023-04-29T06:24:52.188Z,10.50
2023-04-29T06:27:23.565Z,5.65
2023-04-29T06:29:54.395Z,5.55
2023-04-29T06:32:24.867Z,5.62
2023-04-29T06:34:53.339Z,5.72
2023-04-29T06:37:23.050Z,5.30
2023-04-29T06:40:10.841Z,5.37
2023-04-29T06:42:40.643Z,6.20
2023-04-29T06:45:27.775Z,6.20
2023-04-29T06:48:08.604Z,6.20
2023-04-29T06:51:01.980Z,4.50
2023-04-29T06:53:39.207Z,9.08
2023-04-29T06:56:09.800Z,5.28
2023-04-29T06:58:50.547Z,5.10
2023-04-29T07:01:21.626Z,4.47
2023-04-29T07:03:51.438Z,3.35
2023-04-29T07:06:20.162Z,3.77
2023-04-29T07:08:47.815Z,4.42
2023-04-29T07:11:16.387Z,4.40
2023-04-29T07:14:10.433Z,5.62
2023-04-29T07:16:38.368Z,4.83
2023-04-29T07:19:08.065Z,5.08
2023-04-29T07:21:36.102Z,4.30
2023-04-29T07:24:05.203Z,4.65
2023-04-29T07:26:33.920Z,5.10
2023-04-29T07:29:02.149Z,4.72
2023-04-29T07:31:31.256Z,4.22
2023-04-29T07:34:05.606Z,3.92
2023-04-29T07:36:33.345Z,3.70
2023-04-29T07:39:02.791Z,4.05
2023-04-29T07:41:53.606Z,3.85
2023-04-29T07:44:22.117Z,3.70
2023-04-29T07:46:50.117Z,4.28
2023-04-29T07:49:18.009Z,4.67
2023-04-29T07:51:46.029Z,3.65
2023-04-29T07:54:13.891Z,3.62
2023-04-29T07:56:42.376Z,3.30
2023-04-29T07:59:10.314Z,4.03
2023-04-29T08:01:38.678Z,4.65
2023-04-29T08:04:07.402Z,3.20
2023-04-29T08:06:37.349Z,4.40
2023-04-29T08:09:05.203Z,3.77
2023-04-29T08:11:33.667Z,3.20
2023-04-29T08:14:05.212Z,3.17
2023-04-29T08:16:36.291Z,3.05
2023-04-29T08:19:08.100Z,2.90
2023-04-29T08:21:41.747Z,2.52
2023-04-29T08:24:10.533Z,2.65
2023-04-29T08:26:41.999Z,3.08
2023-04-29T08:29:12.920Z,2.72
2023-04-29T08:31:41.585Z,3.00
2023-04-29T08:34:19.844Z,3.00
2023-04-29T08:36:47.275Z,3.33
2023-04-29T08:39:19.618Z,3.10
2023-04-29T08:41:49.326Z,3.35
2023-04-29T08:44:18.373Z,3.15
2023-04-29T08:46:48.957Z,2.20
2023-04-29T08:49:16.841Z,2.98
2023-04-29T08:51:53.231Z,2.70
2023-04-29T08:54:21.125Z,2.30
2023-04-29T08:56:50.346Z,2.10
2023-04-29T08:59:18.484Z,2.10
2023-04-29T09:01:52.221Z,9.70
2023-04-29T09:04:53.002Z,2.50
2023-04-29T09:07:21.702Z,2.15
2023-04-29T09:09:51.908Z,2.40
2023-04-29T09:12:19.635Z,8.73
2023-04-29T09:14:47.345Z,3.30
2023-04-29T09:17:16.063Z,2.40
2023-04-29T09:19:44.612Z,2.62
2023-04-29T09:22:12.227Z,2.05
2023-04-29T09:24:40.695Z,2.40
2023-04-29T09:27:08.757Z,2.08
2023-04-29T09:29:38.739Z,1.90
2023-04-29T09:32:21.063Z,2.65
2023-04-29T09:34:49.276Z,3.15
2023-04-29T09:37:27.752Z,2.25
2023-04-29T09:39:56.527Z,4.60
2023-04-29T09:42:24.985Z,3.87
2023-04-29T09:44:53.859Z,2.65
2023-04-29T09:47:27.056Z,2.58
2023-04-29T09:49:59.601Z,2.47
2023-04-29T09:52:30.770Z,2.27
2023-04-29T09:55:03.804Z,2.30
2023-04-29T09:57:44.259Z,2.22
2023-04-29T10:00:14.069Z,2.10
2023-04-29T10:02:46.219Z,4.60
2023-04-29T10:05:16.800Z,4.28
2023-04-29T10:07:50.697Z,2.15
2023-04-29T10:10:18.650Z,15.43
2023-04-29T10:12:46.610Z,2.50
2023-04-29T10:15:31.696Z,4.00
2023-04-29T10:18:22.140Z,1.95
2023-04-29T10:20:52.207Z,2.25
2023-04-29T10:23:23.081Z,2.02
2023-04-29T10:25:53.378Z,1.90
2023-04-29T10:28:23.339Z,2.22
2023-04-29T10:30:51.946Z,1.87
2023-04-29T10:33:22.469Z,45.75
2023-04-29T10:35:53.191Z,6.62
2023-04-29T10:38:32.349Z,3.50
2023-04-29T10:41:04.972Z,2.10
2023-04-29T10:43:32.819Z,1.45
2023-04-29T10:46:24.032Z,1.90
2023-04-29T10:49:04.521Z,1.65
2023-04-29T10:51:45.659Z,4.12
2023-04-29T10:54:18.532Z,1.90
2023-04-29T10:56:53.893Z,6.00
2023-04-29T10:59:30.010Z,4.08
2023-04-29T11:02:00.177Z,3.80
2023-04-29T11:04:31.459Z,2.33
2023-04-29T11:07:04.725Z,1.72
2023-04-29T11:12:24.803Z,1.67
2023-04-29T11:14:53.184Z,2.02
2023-04-29T11:17:20.865Z,7.95
2023-04-29T11:19:52.925Z,2.27
2023-04-29T11:22:27.489Z,1.75
2023-04-29T11:25:02.140Z,1.80
2023-04-29T11:27:42.536Z,1.60
2023-04-29T11:30:14.110Z,1.90
2023-04-29T11:32:44.518Z,1.85
2023-04-29T11:35:19.127Z,1.60
2023-04-29T11:38:06.993Z,1.60
2023-04-29T11:40:34.762Z,1.57
2023-04-29T11:43:02.645Z,1.87
2023-04-29T11:45:30.500Z,1.75
2023-04-29T11:47:58.347Z,1.47
2023-04-29T11:50:31.266Z,1.80
2023-04-29T11:52:58.831Z,1.82
2023-04-29T11:55:26.604Z,2.10
2023-04-29T11:57:54.641Z,2.35
2023-04-29T12:00:24.558Z,1.87
2023-04-29T12:02:54.528Z,2.10
2023-04-29T12:05:27.983Z,1.50
2023-04-29T12:07:56.118Z,1.67
2023-04-29T12:10:24.004Z,1.62
2023-04-29T12:12:52.353Z,2.20
2023-04-29T12:15:20.400Z,2.17
2023-04-29T12:17:49.288Z,1.75
2023-04-29T12:20:17.105Z,2.17
2023-04-29T12:22:45.185Z,1.85
2023-04-29T12:25:13.165Z,2.50
2023-04-29T12:27:42.517Z,2.35
2023-04-29T12:30:11.763Z,2.60
2023-04-29T12:32:39.544Z,1.90
2023-04-29T12:35:16.653Z,2.58
2023-04-29T12:37:52.151Z,1.82
2023-04-29T12:40:20.862Z,1.60
2023-04-29T12:42:48.834Z,1.90
2023-04-29T12:45:29.481Z,1.80
2023-04-29T12:47:58.320Z,2.30
2023-04-29T12:50:38.195Z,2.30
2023-04-29T12:53:08.421Z,2.10
2023-04-29T12:55:37.971Z,2.72
2023-04-29T12:58:06.837Z,1.82
2023-04-29T13:00:36.823Z,1.75
2023-04-29T13:03:05.240Z,2.12
2023-04-29T13:05:33.264Z,1.62
2023-04-29T13:08:01.893Z,1.70
2023-04-29T13:10:30.648Z,2.20
2023-04-29T13:12:59.271Z,1.87
2023-04-29T13:15:28.335Z,1.95
2023-04-29T13:17:58.202Z,2.08
2023-04-29T13:20:26.114Z,2.00
2023-04-29T13:22:57.389Z,1.87
2023-04-29T13:25:27.590Z,2.20
2023-04-29T13:27:55.571Z,1.70
2023-04-29T13:30:23.936Z,1.70
2023-04-29T13:32:55.830Z,1.95
2023-04-29T13:35:21.835Z,2.20
2023-04-29T13:37:49.974Z,2.33
2023-04-29T13:40:20.952Z,2.60
2023-04-29T13:42:50.132Z,2.65
2023-04-29T13:45:17.364Z,1.85
2023-04-29T13:48:06.817Z,1.90
2023-04-29T13:50:36.882Z,1.95
2023-04-29T13:53:10.483Z,2.12
2023-04-29T13:56:15.294Z,1.47
2023-04-29T14:01:09.979Z,2.10
2023-04-29T14:03:09.558Z,1.60
2023-04-29T14:05:38.705Z,1.72
2023-04-29T14:08:13.782Z,1.42
2023-04-29T14:10:41.546Z,1.77
2023-04-29T14:13:09.817Z,1.57
2023-04-29T14:15:37.651Z,2.00
2023-04-29T14:18:08.433Z,1.87
2023-04-29T14:20:36.534Z,1.80
2023-04-29T14:23:04.331Z,1.70
2023-04-29T14:25:33.802Z,1.80
2023-04-29T14:28:01.842Z,2.20
2023-04-29T14:30:29.993Z,2.45
2023-04-29T14:32:57.834Z,3.80
2023-04-29T14:35:25.592Z,2.20
2023-04-29T14:37:53.788Z,2.10
2023-04-29T14:40:26.785Z,1.55
2023-04-29T14:42:57.322Z,1.70
2023-04-29T14:45:26.120Z,1.85
2023-04-29T14:47:53.867Z,2.30
2023-04-29T14:50:23.552Z,2.80
2023-04-29T14:52:51.610Z,3.20
2023-04-29T14:55:19.609Z,2.08
2023-04-29T14:57:49.515Z,1.80
2023-04-29T15:00:17.618Z,1.85
2023-04-29T15:02:45.345Z,2.65
2023-04-29T15:05:13.063Z,1.57
2023-04-29T15:07:41.240Z,2.60
2023-04-29T15:10:09.747Z,3.00
2023-04-29T15:12:41.219Z,1.67
2023-04-29T15:15:11.151Z,1.70
2023-04-29T15:17:45.213Z,2.80
2023-04-29T15:20:41.110Z,1.87
2023-04-29T15:23:14.254Z,2.47
2023-04-29T15:28:25.653Z,1.98
2023-04-29T15:31:01.264Z,2.50
2023-04-29T15:33:30.385Z,2.40
2023-04-29T15:36:01.189Z,2.80
2023-04-29T15:38:34.626Z,5.40
2023-04-29T15:41:07.472Z,2.62
2023-04-29T15:43:40.358Z,2.90
2023-04-29T15:46:14.467Z,11.73
2023-04-29T15:48:42.941Z,15.85
2023-04-29T15:51:12.625Z,6.80
2023-04-29T15:53:43.362Z,3.22
2023-04-29T15:56:11.102Z,3.33
2023-04-29T15:58:39.120Z,7.45
2023-04-29T16:01:06.866Z,2.95
2023-04-29T16:03:34.598Z,3.42
2023-04-29T16:06:02.379Z,3.62
2023-04-29T16:08:30.182Z,6.78
2023-04-29T16:10:57.828Z,4.47
2023-04-29T16:13:25.219Z,3.20
2023-04-29T16:15:52.890Z,3.40
2023-04-29T16:18:20.504Z,3.77
2023-04-29T16:20:48.588Z,2.52
2023-04-29T16:23:16.115Z,7.87
2023-04-29T16:25:43.717Z,7.00
2023-04-29T16:28:11.362Z,4.75
2023-04-29T16:30:38.990Z,4.30
2023-04-29T16:33:07.389Z,3.72
2023-04-29T16:35:36.790Z,3.40
2023-04-29T16:38:04.462Z,3.40
2023-04-29T16:40:32.271Z,2.92
2023-04-29T16:42:59.925Z,3.10
2023-04-29T16:45:28.462Z,3.95
2023-04-29T16:47:56.118Z,4.35
2023-04-29T16:50:23.845Z,5.72
2023-04-29T16:52:51.790Z,4.12
2023-04-29T16:55:19.439Z,4.30
2023-04-29T16:57:47.020Z,5.00
2023-04-29T17:00:14.984Z,4.70
2023-04-29T17:02:44.648Z,4.35
2023-04-29T17:05:13.170Z,3.87
2023-04-29T17:07:41.957Z,3.77
2023-04-29T17:10:11.220Z,5.08
2023-04-29T17:15:40.407Z,7.58
2023-04-29T17:18:08.224Z,10.30
2023-04-29T17:20:38.922Z,11.38
2023-04-29T17:23:21.737Z,12.35
2023-04-29T17:25:54.880Z,12.88
2023-04-29T17:31:27.325Z,9.48
2023-04-29T17:34:02.257Z,9.53
2023-04-29T17:36:30.541Z,10.45
2023-04-29T17:39:00.882Z,12.47
2023-04-29T17:41:28.848Z,15.53
2023-04-29T17:43:56.469Z,25.52
2023-04-29T17:46:24.140Z,25.68
2023-04-29T17:48:52.107Z,24.40
2023-04-29T17:51:19.863Z,25.10
2023-04-29T17:53:48.707Z,32.98
2023-04-29T17:56:16.152Z,30.92
2023-04-29T17:58:44.001Z,27.17
2023-04-29T18:01:14.195Z,21.37
2023-04-29T18:03:42.237Z,19.65
2023-04-29T18:06:14.856Z,13.30
2023-04-29T18:09:03.924Z,11.57
2023-04-29T18:11:34.143Z,11.15
2023-04-29T18:14:02.018Z,11.50
2023-04-29T18:16:31.816Z,11.33
2023-04-29T18:18:59.670Z,11.57
2023-04-29T18:21:29.097Z,12.13
2023-04-29T18:23:57.581Z,11.38
2023-04-29T18:26:25.658Z,12.43
2023-04-29T18:28:53.283Z,23.32
2023-04-29T18:31:22.628Z,46.08
2023-04-29T18:33:50.414Z,38.70
2023-04-29T18:36:20.114Z,39.42
2023-04-29T18:38:47.883Z,39.88
2023-04-29T18:41:15.797Z,39.45
2023-04-29T18:43:43.939Z,39.85
2023-04-29T18:46:11.601Z,26.55
2023-04-29T18:48:40.053Z,32.73
2023-04-29T18:51:08.010Z,31.27
2023-04-29T18:53:35.763Z,27.42
2023-04-29T18:56:04.241Z,23.85
2023-04-29T18:58:33.033Z,23.45
2023-04-29T19:01:02.615Z,23.77
2023-04-29T19:03:33.524Z,23.83
2023-04-29T19:06:07.738Z,24.23
2023-04-29T19:08:42.916Z,23.07
2023-04-29T19:11:11.531Z,27.60
2023-04-29T19:13:42.189Z,33.02
2023-04-29T19:16:11.408Z,33.25
2023-04-29T19:18:41.584Z,27.27
2023-04-29T19:21:09.760Z,21.65
2023-04-29T19:23:37.479Z,23.35
2023-04-29T19:26:05.504Z,28.38
2023-04-29T19:28:34.547Z,20.57
2023-04-29T19:31:05.418Z,13.58
2023-04-29T19:33:33.159Z,12.37
2023-04-29T19:36:03.674Z,13.10
2023-04-29T19:38:34.555Z,13.62
2023-04-29T19:41:02.330Z,16.77
2023-04-29T19:43:37.397Z,19.95
2023-04-29T19:46:28.528Z,21.00
2023-04-29T19:48:56.224Z,14.95
2023-04-29T19:51:24.503Z,15.05
2023-04-29T19:53:54.556Z,15.80
2023-04-29T19:56:23.402Z,15.55
2023-04-29T19:58:52.818Z,15.20
2023-04-29T20:01:20.756Z,15.50
2023-04-29T20:03:49.252Z,15.35
2023-04-29T20:06:27.949Z,15.68
2023-04-29T20:08:55.833Z,14.47
2023-04-29T20:11:24.685Z,15.18
2023-04-29T20:13:52.683Z,16.40
2023-04-29T20:16:27.918Z,16.23
2023-04-29T20:18:59.256Z,18.10
2023-04-29T20:21:28.788Z,17.67
2023-04-29T20:27:39.451Z,19.07
2023-04-29T20:33:27.143Z,20.60
2023-04-29T20:36:06.030Z,19.62
2023-04-29T20:41:58.311Z,13.72
2023-04-29T20:44:29.639Z,17.57
2023-04-29T20:47:04.553Z,17.23
2023-04-29T20:49:34.712Z,19.15
2023-04-29T20:52:05.326Z,18.48
2023-04-29T20:54:36.440Z,19.62
2023-04-29T20:57:16.316Z,19.12
2023-04-29T20:59:52.620Z,22.27
2023-04-29T21:02:26.260Z,20.25
2023-04-29T21:04:59.546Z,17.32
2023-04-29T21:07:29.178Z,18.87
2023-04-29T21:13:18.300Z,21.25
2023-04-29T21:15:49.725Z,24.20
2023-04-29T21:18:17.707Z,27.32
2023-04-29T21:20:45.719Z,24.92
2023-04-29T21:23:15.293Z,27.02
2023-04-29T21:28:51.435Z,17.98
2023-04-29T21:34:30.889Z,16.80
2023-04-29T21:46:56.117Z,16.12
2023-04-29T21:49:25.778Z,14.78
2023-04-29T21:51:58.256Z,16.40
2023-04-29T21:54:32.117Z,15.00
2023-04-29T21:57:01.830Z,16.42
2023-04-29T21:59:41.728Z,14.40
2023-04-29T22:02:17.680Z,14.07
2023-04-29T22:04:46.454Z,16.17
2023-04-29T22:07:18.916Z,16.67
2023-04-29T22:09:49.898Z,16.70
2023-04-29T22:12:22.132Z,15.40
2023-04-29T22:14:50.047Z,16.97
2023-04-29T22:17:19.775Z,16.50
2023-04-29T22:19:49.622Z,18.07
2023-04-29T22:22:17.553Z,17.65
2023-04-29T22:24:48.722Z,17.35
2023-04-29T22:27:17.633Z,17.25
2023-04-29T22:29:45.562Z,16.90
2023-04-29T22:32:14.681Z,17.02
2023-04-29T22:34:42.333Z,17.35
2023-04-29T22:37:15.184Z,16.70
2023-04-29T22:39:45.055Z,15.58
2023-04-29T22:42:15.592Z,14.73
2023-04-29T22:44:44.053Z,14.93
2023-04-29T22:47:13.071Z,15.70
2023-04-29T22:49:43.178Z,14.80
2023-04-29T22:52:15.103Z,14.33
2023-04-29T22:54:51.642Z,16.00
2023-04-29T23:03:50.028Z,14.85
2023-04-29T23:09:30.157Z,19.62
2023-04-29T23:11:59.104Z,20.55
2023-04-29T23:14:26.980Z,20.55
2023-04-29T23:17:07.020Z,21.23
2023-04-29T23:19:36.395Z,19.60
2023-04-29T23:22:06.500Z,18.85
2023-04-29T23:27:51.932Z,15.00
2023-04-29T23:30:19.744Z,12.50
2023-04-29T23:32:47.791Z,11.88
2023-04-29T23:35:15.734Z,12.05
2023-04-29T23:37:43.789Z,9.80
2023-04-29T23:40:11.618Z,12.00
2023-04-29T23:42:39.299Z,12.18
2023-04-29T23:45:10.733Z,15.08
2023-04-29T23:47:38.580Z,16.07
2023-04-29T23:50:07.610Z,15.65
2023-04-29T23:52:35.402Z,14.85
2023-04-29T23:55:03.853Z,14.90
2023-04-29T23:57:31.816Z,15.32
